createdAt,value
2023-02-02T00:01:55.864Z,1.40
2023-02-02T00:04:26.201Z,1.10
2023-02-02T00:06:57.477Z,0.60
2023-02-02T00:09:29.683Z,1.10
2023-02-02T00:12:00.547Z,0.90
2023-02-02T00:14:29.645Z,1.50
2023-02-02T00:16:58.842Z,1.10
2023-02-02T00:19:31.764Z,1.60
2023-02-02T00:22:00.724Z,1.10
2023-02-02T00:24:29.508Z,1.10
2023-02-02T00:27:00.297Z,1.40
2023-02-02T00:29:31.916Z,1.10
2023-02-02T00:32:00.486Z,0.90
2023-02-02T00:34:29.580Z,0.90
2023-02-02T00:36:58.266Z,1.00
2023-02-02T00:39:27.061Z,0.70
2023-02-02T00:41:56.767Z,0.80
2023-02-02T00:44:43.901Z,1.30
2023-02-02T00:47:13.089Z,1.60
2023-02-02T00:49:41.566Z,1.60
2023-02-02T00:52:10.151Z,2.10
2023-02-02T00:54:38.842Z,1.30
2023-02-02T00:57:07.627Z,1.40
2023-02-02T00:59:36.320Z,1.00
2023-02-02T01:02:04.921Z,0.90
2023-02-02T01:04:33.687Z,0.90
2023-02-02T01:07:02.577Z,2.70
2023-02-02T01:09:31.778Z,2.50
2023-02-02T01:12:00.570Z,1.50
2023-02-02T01:14:29.150Z,1.10
2023-02-02T01:16:58.144Z,1.20
2023-02-02T01:19:28.062Z,1.50
2023-02-02T01:21:56.645Z,0.80
2023-02-02T01:24:26.287Z,0.80
2023-02-02T01:26:54.838Z,1.60
2023-02-02T01:29:23.625Z,1.60
2023-02-02T01:31:52.866Z,1.80
2023-02-02T01:34:21.614Z,0.90
2023-02-02T01:36:50.199Z,1.80
2023-02-02T01:39:19.505Z,1.30
2023-02-02T01:41:48.699Z,1.40
2023-02-02T01:45:13.617Z,2.30
2023-02-02T01:47:48.697Z,1.40
2023-02-02T01:50:19.746Z,2.00
2023-02-02T01:52:51.711Z,1.10
2023-02-02T01:55:25.437Z,1.40
2023-02-02T01:58:05.404Z,2.30
2023-02-02T02:00:34.197Z,2.70
2023-02-02T02:03:09.739Z,2.00
2023-02-02T02:06:15.844Z,1.90
2023-02-02T02:09:03.806Z,1.80
2023-02-02T02:11:35.270Z,1.40
2023-02-02T02:14:27.331Z,1.50
2023-02-02T02:17:44.863Z,1.80
2023-02-02T02:21:06.494Z,1.90
2023-02-02T02:24:41.328Z,1.30
2023-02-02T02:28:11.966Z,1.80
2023-02-02T02:31:01.420Z,1.20
2023-02-02T02:34:03.408Z,2.00
2023-02-02T02:36:57.184Z,2.30
2023-02-02T02:39:37.955Z,1.80
2023-02-02T02:42:17.380Z,1.60
2023-02-02T02:44:49.308Z,1.80
2023-02-02T02:47:19.749Z,1.60
2023-02-02T02:49:49.803Z,1.30
2023-02-02T02:52:18.284Z,1.50
2023-02-02T02:54:53.717Z,2.00
2023-02-02T02:57:52.827Z,1.80
2023-02-02T03:00:30.640Z,1.40
2023-02-02T03:03:08.536Z,1.70
2023-02-02T03:06:15.108Z,1.70
2023-02-02T03:09:00.591Z,1.50
2023-02-02T03:11:30.100Z,1.20
2023-02-02T03:13:58.744Z,0.80
2023-02-02T03:16:27.474Z,1.20
2023-02-02T03:18:57.469Z,1.10
2023-02-02T03:21:25.969Z,1.40
2023-02-02T03:23:54.861Z,1.30
2023-02-02T03:26:23.857Z,1.40
2023-02-02T03:28:56.403Z,1.40
2023-02-02T03:31:28.690Z,1.10
2023-02-02T03:33:57.296Z,1.00
2023-02-02T03:36:25.976Z,1.10
2023-02-02T03:38:54.785Z,1.00
2023-02-02T03:41:23.453Z,1.10
2023-02-02T03:43:52.346Z,1.00
2023-02-02T03:46:20.976Z,1.40
2023-02-02T03:48:49.719Z,0.90
2023-02-02T03:51:18.300Z,0.80
2023-02-02T03:53:47.993Z,1.20
2023-02-02T03:56:17.444Z,1.60
2023-02-02T03:58:47.540Z,1.20
2023-02-02T04:01:16.529Z,1.00
2023-02-02T04:03:46.574Z,1.20
2023-02-02T04:06:15.132Z,1.20
2023-02-02T04:08:43.726Z,0.90
2023-02-02T04:11:12.813Z,1.00
2023-02-02T04:13:43.682Z,1.10
2023-02-02T04:16:13.404Z,0.90
2023-02-02T04:18:42.064Z,0.90
2023-02-02T04:21:11.086Z,0.60
2023-02-02T04:23:39.736Z,0.70
2023-02-02T04:26:08.318Z,0.60
2023-02-02T04:28:37.013Z,0.80
2023-02-02T04:31:05.678Z,0.70
2023-02-02T04:33:35.753Z,1.00
2023-02-02T04:36:05.440Z,0.70
2023-02-02T04:38:34.205Z,0.70
2023-02-02T04:41:14.875Z,1.00
2023-02-02T04:43:43.669Z,0.70
2023-02-02T04:46:13.280Z,1.10
2023-02-02T04:48:42.552Z,0.60
2023-02-02T04:51:14.955Z,0.80
2023-02-02T04:53:43.436Z,0.60
2023-02-02T04:56:18.709Z,0.60
2023-02-02T04:58:47.257Z,0.50
2023-02-02T05:01:20.971Z,0.70
2023-02-02T05:03:50.777Z,0.50
2023-02-02T05:06:19.971Z,0.70
2023-02-02T05:08:49.286Z,0.50
2023-02-02T05:11:22.042Z,0.30
2023-02-02T05:13:54.132Z,0.50
2023-02-02T05:16:24.209Z,0.90
2023-02-02T05:18:56.893Z,0.60
2023-02-02T05:21:25.607Z,0.90
2023-02-02T05:23:54.403Z,0.70
2023-02-02T05:26:26.853Z,0.60
2023-02-02T05:28:56.784Z,0.90
2023-02-02T05:31:25.509Z,1.00
2023-02-02T05:33:54.328Z,1.50
2023-02-02T05:36:23.055Z,1.30
2023-02-02T05:38:51.534Z,0.80
2023-02-02T05:41:20.234Z,0.60
2023-02-02T05:43:48.723Z,1.10
2023-02-02T05:46:17.295Z,0.70
2023-02-02T05:48:46.086Z,0.70
2023-02-02T05:51:24.187Z,0.80
2023-02-02T05:53:52.980Z,0.60
2023-02-02T05:56:21.780Z,0.60
2023-02-02T05:58:50.350Z,0.80
2023-02-02T06:01:19.715Z,1.10
2023-02-02T06:03:48.721Z,0.90
2023-02-02T06:06:17.540Z,0.70
2023-02-02T06:08:46.322Z,0.60
2023-02-02T06:11:17.903Z,0.60
2023-02-02T06:13:46.734Z,0.50
2023-02-02T06:16:15.327Z,0.90
2023-02-02T06:18:44.143Z,0.70
2023-02-02T06:21:13.239Z,0.60
2023-02-02T06:23:46.107Z,0.70
2023-02-02T06:26:19.436Z,0.50
2023-02-02T06:28:54.015Z,1.20
2023-02-02T06:31:23.412Z,0.40
2023-02-02T06:33:58.619Z,1.00
2023-02-02T06:36:28.333Z,0.60
2023-02-02T06:38:58.546Z,0.80
2023-02-02T06:41:27.117Z,0.50
2023-02-02T06:43:55.792Z,0.90
2023-02-02T06:46:24.410Z,0.40
2023-02-02T06:48:53.270Z,0.70
2023-02-02T06:51:22.265Z,0.50
2023-02-02T06:53:50.782Z,0.60
2023-02-02T06:56:19.227Z,0.50
2023-02-02T06:58:47.813Z,1.00
2023-02-02T07:01:16.448Z,1.20
2023-02-02T07:03:50.206Z,2.00
2023-02-02T07:06:26.615Z,1.50
2023-02-02T07:09:02.149Z,2.40
2023-02-02T07:11:42.849Z,2.30
2023-02-02T07:14:14.141Z,2.00
2023-02-02T07:16:42.828Z,2.70
2023-02-02T07:19:11.507Z,2.30
2023-02-02T07:21:40.097Z,2.00
2023-02-02T07:24:09.089Z,2.40
2023-02-02T07:26:37.792Z,2.00
2023-02-02T07:29:06.974Z,1.90
2023-02-02T07:31:36.804Z,2.60
2023-02-02T07:34:06.802Z,1.50
2023-02-02T07:36:36.130Z,0.70
2023-02-02T07:39:05.522Z,3.60
2023-02-02T07:41:37.036Z,2.80
2023-02-02T07:44:07.222Z,5.10
2023-02-02T07:46:36.223Z,2.70
2023-02-02T07:49:06.507Z,2.70
2023-02-02T07:51:36.760Z,2.70
2023-02-02T07:54:07.413Z,2.00
2023-02-02T07:56:36.350Z,3.50
2023-02-02T07:59:05.034Z,2.80
2023-02-02T08:01:33.973Z,4.00
2023-02-02T08:04:03.703Z,2.30
2023-02-02T08:06:35.831Z,3.60
2023-02-02T08:09:08.011Z,3.20
2023-02-02T08:11:38.692Z,3.90
2023-02-02T08:14:07.815Z,3.60
2023-02-02T08:16:36.447Z,3.40
2023-02-02T08:19:05.386Z,5.70
2023-02-02T08:21:35.280Z,3.40
2023-02-02T08:24:05.529Z,2.10
2023-02-02T08:26:34.203Z,3.00
2023-02-02T08:29:09.091Z,4.80
2023-02-02T08:31:42.131Z,4.90
2023-02-02T08:34:14.197Z,5.60
2023-02-02T08:36:42.790Z,3.70
2023-02-02T08:39:13.111Z,2.80
2023-02-02T08:41:42.630Z,2.60
2023-02-02T08:44:15.241Z,1.80
2023-02-02T08:46:43.926Z,2.10
2023-02-02T08:49:13.905Z,2.50
2023-02-02T08:51:42.492Z,2.00
2023-02-02T08:54:11.169Z,2.50
2023-02-02T08:56:39.757Z,2.50
2023-02-02T08:59:08.447Z,1.80
2023-02-02T09:01:37.131Z,1.50
2023-02-02T09:04:09.011Z,1.50
2023-02-02T09:06:40.496Z,2.00
2023-02-02T09:09:15.289Z,1.80
2023-02-02T09:11:44.985Z,2.60
2023-02-02T09:14:14.729Z,3.40
2023-02-02T09:16:43.567Z,2.20
2023-02-02T09:19:12.822Z,2.60
2023-02-02T09:21:41.589Z,2.40
2023-02-02T09:24:13.831Z,2.50
2023-02-02T09:26:45.053Z,3.00
2023-02-02T09:29:18.060Z,2.80
2023-02-02T09:31:47.287Z,3.50
2023-02-02T09:34:16.488Z,2.70
2023-02-02T09:36:45.186Z,7.70
2023-02-02T09:39:16.227Z,3.30
2023-02-02T09:42:06.701Z,6.80
2023-02-02T09:44:40.210Z,4.80
2023-02-02T09:47:23.326Z,5.40
2023-02-02T09:50:04.113Z,4.90
2023-02-02T09:52:38.549Z,4.60
2023-02-02T09:55:16.121Z,3.80
2023-02-02T09:57:51.882Z,6.40
2023-02-02T10:00:31.309Z,4.80
2023-02-02T10:03:13.408Z,3.70
2023-02-02T10:06:21.738Z,3.90
2023-02-02T10:09:04.027Z,3.00
2023-02-02T10:12:19.824Z,2.40
2023-02-02T10:14:59.253Z,1.60
2023-02-02T10:17:49.655Z,1.90
2023-02-02T10:20:31.041Z,1.90
2023-02-02T10:23:12.073Z,1.90
2023-02-02T10:25:47.163Z,2.00
2023-02-02T10:28:20.814Z,3.00
2023-02-02T10:30:59.950Z,2.00
2023-02-02T10:33:40.969Z,1.20
2023-02-02T10:36:32.710Z,1.80
2023-02-02T10:39:25.856Z,1.70
2023-02-02T10:42:15.230Z,1.90
2023-02-02T10:44:55.078Z,1.60
2023-02-02T10:47:32.171Z,1.50
2023-02-02T10:50:12.752Z,1.00
2023-02-02T10:52:52.594Z,0.90
2023-02-02T10:55:52.391Z,1.10
2023-02-02T10:58:35.312Z,1.40
2023-02-02T11:01:08.142Z,1.40
2023-02-02T11:03:37.804Z,1.50
2023-02-02T11:06:27.183Z,1.70
2023-02-02T11:09:05.390Z,1.30
2023-02-02T11:11:42.531Z,1.30
2023-02-02T11:14:30.611Z,1.20
2023-02-02T11:17:06.549Z,1.40
2023-02-02T11:19:37.868Z,1.50
2023-02-02T11:22:06.399Z,1.30
2023-02-02T11:24:49.890Z,1.00
2023-02-02T11:27:48.318Z,1.50
2023-02-02T11:30:34.934Z,1.60
2023-02-02T11:33:31.577Z,1.80
2023-02-02T11:36:06.302Z,1.50
2023-02-02T11:38:34.887Z,3.30
2023-02-02T11:41:11.396Z,4.40
2023-02-02T11:43:53.042Z,5.40
2023-02-02T11:46:34.471Z,3.80
2023-02-02T11:49:13.761Z,2.00
2023-02-02T11:51:43.914Z,2.80
2023-02-02T11:54:18.587Z,2.00
2023-02-02T11:56:53.733Z,1.30
2023-02-02T11:59:35.745Z,1.50
2023-02-02T12:02:14.040Z,2.40
2023-02-02T12:04:42.956Z,2.40
2023-02-02T12:07:32.222Z,1.50
2023-02-02T12:10:13.704Z,1.40
2023-02-02T12:13:05.960Z,1.50
2023-02-02T12:15:58.725Z,1.90
2023-02-02T12:19:07.628Z,1.10
2023-02-02T12:22:06.319Z,1.40
2023-02-02T12:25:12.793Z,1.10
2023-02-02T12:28:01.970Z,1.10
2023-02-02T12:30:44.494Z,1.40
2023-02-02T12:33:39.576Z,2.40
2023-02-02T12:36:36.026Z,2.30
2023-02-02T12:39:11.267Z,1.90
2023-02-02T12:42:20.291Z,2.40
2023-02-02T12:45:14.272Z,2.30
2023-02-02T12:48:18.086Z,1.30
2023-02-02T12:51:03.666Z,2.00
2023-02-02T12:54:32.814Z,1.30
2023-02-02T12:57:16.820Z,1.70
2023-02-02T12:59:56.867Z,1.60
2023-02-02T13:02:34.649Z,1.80
2023-02-02T13:08:26.005Z,1.60
2023-02-02T13:11:04.274Z,2.60
2023-02-02T13:13:39.801Z,1.20
2023-02-02T13:16:14.587Z,1.60
2023-02-02T13:19:00.793Z,1.80
2023-02-02T13:21:31.713Z,1.40
2023-02-02T13:24:05.920Z,1.40
2023-02-02T13:26:45.069Z,1.20
2023-02-02T13:29:47.551Z,1.70
2023-02-02T13:32:39.460Z,1.70
2023-02-02T13:35:20.463Z,1.00
2023-02-02T13:38:06.355Z,1.80
2023-02-02T13:40:41.824Z,1.40
2023-02-02T13:43:30.264Z,1.50
2023-02-02T13:46:49.798Z,1.00
2023-02-02T13:49:24.577Z,1.10
2023-02-02T13:52:15.268Z,1.20
2023-02-02T13:55:02.694Z,1.40
2023-02-02T13:57:52.475Z,1.50
2023-02-02T14:01:03.058Z,1.30
2023-02-02T14:03:42.076Z,1.60
2023-02-02T14:06:17.068Z,6.60
2023-02-02T14:08:56.853Z,13.50
2023-02-02T14:11:33.332Z,8.70
2023-02-02T14:14:39.592Z,3.70
2023-02-02T14:17:34.697Z,2.80
2023-02-02T14:20:08.851Z,2.10
2023-02-02T14:22:52.664Z,1.40
2023-02-02T14:25:33.698Z,1.90
2023-02-02T14:28:09.694Z,2.20
2023-02-02T14:30:40.787Z,1.50
2023-02-02T14:33:21.498Z,1.60
2023-02-02T14:35:50.095Z,4.20
2023-02-02T14:38:54.611Z,3.30
2023-02-02T14:41:58.321Z,4.10
2023-02-02T14:44:29.154Z,2.00
2023-02-02T14:46:58.050Z,3.10
2023-02-02T14:49:35.675Z,1.10
2023-02-02T14:52:05.653Z,2.30
2023-02-02T14:54:42.917Z,3.00
2023-02-02T14:57:28.013Z,3.10
2023-02-02T15:00:01.056Z,2.90
2023-02-02T15:02:30.034Z,3.10
2023-02-02T15:05:31.152Z,4.60
2023-02-02T15:08:25.945Z,6.10
2023-02-02T15:11:23.722Z,3.20
2023-02-02T15:13:59.390Z,2.90
2023-02-02T15:16:32.240Z,4.00
2023-02-02T15:19:25.044Z,3.40
2023-02-02T15:21:58.509Z,3.70
2023-02-02T15:24:30.111Z,3.40
2023-02-02T15:27:00.357Z,4.30
2023-02-02T15:29:43.008Z,2.60
2023-02-02T15:32:25.472Z,1.90
2023-02-02T15:34:59.672Z,5.80
2023-02-02T15:37:41.945Z,5.50
2023-02-02T15:40:20.468Z,9.50
2023-02-02T15:42:58.979Z,8.90
2023-02-02T15:45:43.836Z,7.90
2023-02-02T15:48:34.183Z,7.20
2023-02-02T15:51:17.659Z,6.50
2023-02-02T15:53:51.968Z,4.40
2023-02-02T15:56:23.561Z,4.20
2023-02-02T15:58:56.753Z,3.00
2023-02-02T16:01:29.871Z,4.70
2023-02-02T16:04:19.970Z,4.90
2023-02-02T16:06:50.240Z,9.10
2023-02-02T16:09:34.504Z,8.10
2023-02-02T16:12:09.131Z,8.40
2023-02-02T16:14:40.454Z,10.90
2023-02-02T16:17:32.140Z,9.80
2023-02-02T16:20:14.712Z,9.00
2023-02-02T16:22:47.039Z,6.60
2023-02-02T16:25:23.321Z,7.50
2023-02-02T16:27:53.926Z,9.30
2023-02-02T16:30:31.633Z,14.50
2023-02-02T16:33:30.284Z,15.10
2023-02-02T16:35:59.058Z,9.60
2023-02-02T16:38:35.337Z,10.60
2023-02-02T16:41:25.977Z,10.60
2023-02-02T16:43:55.108Z,11.10
2023-02-02T16:46:53.415Z,12.50
2023-02-02T16:49:27.409Z,9.40
2023-02-02T16:52:18.410Z,9.90
2023-02-02T16:54:54.669Z,9.70
2023-02-02T16:57:34.032Z,7.10
2023-02-02T17:00:07.903Z,6.80
2023-02-02T17:02:45.257Z,9.00
2023-02-02T17:05:33.380Z,8.50
2023-02-02T17:08:05.782Z,8.60
2023-02-02T17:10:43.750Z,7.60
2023-02-02T17:13:43.231Z,8.00
2023-02-02T17:16:17.822Z,7.10
2023-02-02T17:18:47.357Z,5.70
2023-02-02T17:21:25.753Z,7.10
2023-02-02T17:23:54.712Z,7.60
2023-02-02T17:26:23.376Z,9.30
2023-02-02T17:28:56.854Z,13.80
2023-02-02T17:31:25.507Z,17.20
2023-02-02T17:33:54.342Z,19.90
2023-02-02T17:36:23.243Z,22.10
2023-02-02T17:38:51.818Z,26.50
2023-02-02T17:41:20.498Z,29.80
2023-02-02T17:43:49.189Z,19.90
2023-02-02T17:46:18.317Z,16.80
2023-02-02T17:48:46.769Z,16.20
2023-02-02T17:51:17.140Z,20.20
2023-02-02T17:53:46.734Z,22.00
2023-02-02T17:56:15.691Z,23.00
2023-02-02T17:58:44.381Z,19.60
2023-02-02T18:01:13.534Z,20.20
2023-02-02T18:03:45.655Z,15.80
2023-02-02T18:06:14.236Z,14.50
2023-02-02T18:08:42.920Z,16.20
2023-02-02T18:11:14.399Z,16.70
2023-02-02T18:13:44.480Z,19.00
2023-02-02T18:16:13.952Z,21.80
2023-02-02T18:18:42.782Z,24.00
2023-02-02T18:21:14.308Z,26.20
2023-02-02T18:23:42.820Z,29.70
2023-02-02T18:26:18.833Z,29.10
2023-02-02T18:28:50.624Z,30.70
2023-02-02T18:31:24.144Z,27.40
2023-02-02T18:33:53.996Z,26.80
2023-02-02T18:36:23.933Z,25.90
2023-02-02T18:38:54.098Z,21.80
2023-02-02T18:41:23.204Z,17.90
2023-02-02T18:43:55.263Z,13.00
2023-02-02T18:46:23.982Z,10.20
2023-02-02T18:48:52.945Z,9.10
2023-02-02T18:51:22.340Z,9.70
2023-02-02T18:53:51.022Z,8.40
2023-02-02T18:56:20.018Z,8.90
2023-02-02T18:58:48.719Z,9.50
2023-02-02T19:01:20.093Z,10.10
2023-02-02T19:03:57.585Z,9.30
2023-02-02T19:06:46.818Z,10.20
2023-02-02T19:09:17.561Z,23.50
2023-02-02T19:11:54.858Z,25.60
2023-02-02T19:14:37.874Z,25.50
2023-02-02T19:17:24.746Z,22.60
2023-02-02T19:19:53.916Z,20.50
2023-02-02T19:22:27.008Z,15.10
2023-02-02T19:24:57.400Z,12.20
2023-02-02T19:27:27.300Z,10.10
2023-02-02T19:30:03.915Z,7.80
2023-02-02T19:32:35.137Z,7.60
2023-02-02T19:35:15.796Z,9.20
2023-02-02T19:37:46.773Z,5.90
2023-02-02T19:40:23.824Z,26.80
2023-02-02T19:42:59.880Z,9.30
2023-02-02T19:45:35.611Z,6.30
2023-02-02T19:48:24.518Z,10.70
2023-02-02T19:50:56.146Z,8.80
2023-02-02T19:53:38.510Z,8.10
2023-02-02T19:56:40.924Z,5.00
2023-02-02T19:59:20.676Z,8.80
2023-02-02T20:01:50.927Z,18.70
2023-02-02T20:04:20.463Z,25.00
2023-02-02T20:06:58.549Z,22.70
2023-02-02T20:09:35.399Z,18.30
2023-02-02T20:12:24.761Z,18.30
2023-02-02T20:14:54.168Z,14.60
2023-02-02T20:17:34.734Z,14.10
2023-02-02T20:20:24.585Z,10.10
2023-02-02T20:22:55.766Z,8.60
2023-02-02T20:25:24.456Z,9.20
2023-02-02T20:27:53.995Z,7.50
2023-02-02T20:30:31.221Z,6.70
2023-02-02T20:33:03.255Z,16.40
2023-02-02T20:35:41.966Z,15.00
2023-02-02T20:38:22.746Z,9.40
2023-02-02T20:40:52.453Z,4.40
2023-02-02T20:43:21.626Z,3.00
2023-02-02T20:45:51.365Z,3.50
2023-02-02T20:48:20.207Z,4.40
2023-02-02T20:50:48.901Z,4.80
2023-02-02T20:53:17.684Z,4.90
2023-02-02T20:55:46.279Z,5.40
2023-02-02T20:58:14.848Z,6.40
2023-02-02T21:00:43.403Z,7.10
2023-02-02T21:03:13.449Z,6.50
2023-02-02T21:05:42.345Z,5.60
2023-02-02T21:08:10.988Z,5.00
2023-02-02T21:10:39.822Z,37.50
2023-02-02T21:13:08.313Z,18.30
2023-02-02T21:15:37.200Z,7.00
2023-02-02T21:18:06.088Z,8.50
2023-02-02T21:20:34.982Z,13.10
2023-02-02T21:23:03.667Z,6.40
2023-02-02T21:25:32.283Z,2.60
2023-02-02T21:28:00.938Z,1.60
2023-02-02T21:30:30.031Z,2.20
2023-02-02T21:32:59.782Z,2.30
2023-02-02T21:35:28.333Z,2.90
2023-02-02T21:38:01.071Z,3.10
2023-02-02T21:40:33.135Z,3.90
2023-02-02T21:43:13.062Z,9.20
2023-02-02T21:45:42.965Z,15.50
2023-02-02T21:48:32.730Z,21.10
2023-02-02T21:51:22.234Z,18.20
2023-02-02T21:53:51.961Z,10.90
2023-02-02T21:56:36.179Z,9.70
2023-02-02T21:59:15.292Z,4.70
2023-02-02T22:01:45.205Z,2.70
2023-02-02T22:04:23.005Z,1.80
2023-02-02T22:07:15.609Z,2.10
2023-02-02T22:09:48.747Z,2.10
2023-02-02T22:12:23.390Z,1.60
2023-02-02T22:14:59.289Z,2.20
2023-02-02T22:17:42.150Z,3.90
2023-02-02T22:20:17.964Z,3.40
2023-02-02T22:22:49.745Z,3.30
2023-02-02T22:25:18.348Z,2.40
2023-02-02T22:27:58.982Z,2.60
2023-02-02T22:30:40.267Z,2.70
2023-02-02T22:33:13.318Z,2.90
2023-02-02T22:35:43.302Z,2.90
2023-02-02T22:38:17.682Z,4.30
2023-02-02T22:40:51.237Z,4.30
2023-02-02T22:43:22.095Z,4.20
2023-02-02T22:45:50.767Z,3.90
2023-02-02T22:48:19.540Z,2.50
2023-02-02T22:50:48.332Z,4.10
2023-02-02T22:53:16.912Z,5.40
2023-02-02T22:55:45.500Z,5.10
2023-02-02T22:58:14.104Z,3.80
2023-02-02T23:00:42.673Z,2.30
2023-02-02T23:03:11.414Z,4.60
2023-02-02T23:05:40.263Z,9.70
2023-02-02T23:08:09.198Z,10.90
2023-02-02T23:10:37.844Z,9.40
2023-02-02T23:13:07.147Z,7.40
2023-02-02T23:15:36.118Z,7.00
2023-02-02T23:18:05.032Z,9.70
2023-02-02T23:20:33.901Z,8.90
2023-02-02T23:23:02.671Z,5.10
2023-02-02T23:25:31.389Z,4.10
2023-02-02T23:28:00.111Z,3.60
2023-02-02T23:30:28.962Z,3.30
2023-02-02T23:32:58.049Z,4.00
2023-02-02T23:35:26.639Z,4.20
2023-02-02T23:37:55.219Z,4.30
2023-02-02T23:40:23.900Z,4.60
2023-02-02T23:42:52.796Z,7.60
2023-02-02T23:45:21.491Z,7.50
2023-02-02T23:47:50.068Z,5.00
2023-02-02T23:50:19.239Z,7.70
2023-02-02T23:52:47.855Z,7.90
2023-02-02T23:55:16.712Z,8.50
2023-02-02T23:57:45.839Z,5.10
